LELN/LEN METAR and TAF weather

Enter ICAO airport designator
Station Type Date Time Source
LELN METAR 2021/03/08 00:30 UTC NOAA

LELN 080030Z AUTO 03005KT 360V060 9999 OVC030 05/00 Q1016


Station Type Date Time Source
LELN Decoded METAR 2021/03/08 00:30 UTC NOAA

Leon / Virgen Del Camino, Spain (LELN) 42-35N 005-39W 914M
Mar 07, 2021 - 07:30 PM EST / 2021.03.08 0030 UTC
Wind: from the NNE (030 degrees) at 6 MPH (5 KT) (direction variable):0
Visibility: greater than 7 mile(s):0
Sky conditions: overcast
Temperature: 41 F (5 C)
Dew Point: 32 F (0 C)
Relative Humidity: 70%
Pressure (altimeter): 30.00 in. Hg (1016 hPa)
ob: LELN 080030Z AUTO 03005KT 360V060 9999 OVC030 05/00 Q1016
cycle: 0

Station Type Date Time Source
LELN TAF 2021/03/07 21:27 UTC NOAA

TAF TAF LELN 072000Z 0721/0821 02007KT 9999 FEW025 TX13/0815Z TNM00/0807Z PROB30
TEMPO 0721/0723 4000 SHRA SCT020TCU PROB30
TEMPO 0721/0808 BKN014

Example: see airport list